createdAt,value
2018-05-07T00:00:58.330Z,19.52
2018-05-07T00:01:58.173Z,19.54
2018-05-07T00:02:58.237Z,19.51
2018-05-07T00:03:58.361Z,19.51
2018-05-07T00:04:58.141Z,19.53
2018-05-07T00:05:58.416Z,19.51
2018-05-07T00:06:58.085Z,19.51
2018-05-07T00:07:58.447Z,19.53
2018-05-07T00:08:58.106Z,19.51
2018-05-07T00:09:58.320Z,19.5
2018-05-07T00:10:58.395Z,19.53
2018-05-07T00:11:58.404Z,19.51
2018-05-07T00:12:58.292Z,19.5
2018-05-07T00:13:58.196Z,19.52
2018-05-07T00:14:58.163Z,19.5
2018-05-07T00:15:58.199Z,19.49
2018-05-07T00:16:58.179Z,19.52
2018-05-07T00:17:58.415Z,19.5
2018-05-07T00:18:58.275Z,19.49
2018-05-07T00:19:58.185Z,19.51
2018-05-07T00:20:58.210Z,19.5
2018-05-07T00:21:58.281Z,19.48
2018-05-07T00:22:58.342Z,19.52
2018-05-07T00:23:58.203Z,19.5
2018-05-07T00:24:58.291Z,19.49
2018-05-07T00:25:58.226Z,19.52
2018-05-07T00:26:58.193Z,19.49
2018-05-07T00:27:58.344Z,19.48
2018-05-07T00:28:58.421Z,19.51
2018-05-07T00:29:58.295Z,19.49
2018-05-07T00:30:58.419Z,19.49
2018-05-07T00:31:58.300Z,19.52
2018-05-07T00:32:58.311Z,19.49
2018-05-07T00:33:58.191Z,19.48
2018-05-07T00:34:58.282Z,19.5
2018-05-07T00:35:58.400Z,19.48
2018-05-07T00:36:58.445Z,19.48
2018-05-07T00:37:58.326Z,19.5
2018-05-07T00:38:58.200Z,19.49
2018-05-07T00:39:58.457Z,19.48
2018-05-07T00:40:58.414Z,19.51
2018-05-07T00:41:58.354Z,19.48
2018-05-07T00:42:58.369Z,19.48
2018-05-07T00:43:58.344Z,19.5
2018-05-07T00:44:58.211Z,19.48
2018-05-07T00:45:58.316Z,19.48
2018-05-07T00:46:58.333Z,19.5
2018-05-07T00:47:58.316Z,19.48
2018-05-07T00:48:58.107Z,19.48
2018-05-07T00:49:58.343Z,19.5
2018-05-07T00:50:58.321Z,19.47
2018-05-07T00:51:58.326Z,19.47
2018-05-07T00:52:58.207Z,19.49
2018-05-07T00:53:58.215Z,19.48
2018-05-07T00:54:58.318Z,19.46
2018-05-07T00:55:58.228Z,19.49
2018-05-07T00:56:58.166Z,19.47
2018-05-07T00:57:58.274Z,19.47
2018-05-07T00:58:58.194Z,19.49
2018-05-07T00:59:58.200Z,19.47
2018-05-07T01:00:58.382Z,19.47
2018-05-07T01:01:58.219Z,19.49
2018-05-07T01:02:58.168Z,19.47
2018-05-07T01:03:58.151Z,19.46
2018-05-07T01:04:58.565Z,19.48
2018-05-07T01:05:58.326Z,19.47
2018-05-07T01:06:58.364Z,19.47
2018-05-07T01:07:58.272Z,19.48
2018-05-07T01:08:58.256Z,19.46
2018-05-07T01:09:58.234Z,19.45
2018-05-07T01:10:58.313Z,19.48
2018-05-07T01:11:58.295Z,19.46
2018-05-07T01:12:58.394Z,19.46
2018-05-07T01:13:58.209Z,19.48
2018-05-07T01:14:58.335Z,19.45
2018-05-07T01:15:58.278Z,19.45
2018-05-07T01:16:58.404Z,19.48
2018-05-07T01:17:58.179Z,19.46
2018-05-07T01:18:58.329Z,19.45
2018-05-07T01:19:58.321Z,19.48
2018-05-07T01:20:58.142Z,19.46
2018-05-07T01:21:58.233Z,19.45
2018-05-07T01:22:58.231Z,19.48
2018-05-07T01:23:58.231Z,19.46
2018-05-07T01:24:58.302Z,19.45
2018-05-07T01:25:58.282Z,19.48
2018-05-07T01:26:58.326Z,19.46
2018-05-07T01:27:58.282Z,19.44
2018-05-07T01:28:58.449Z,19.47
2018-05-07T01:29:58.285Z,19.45
2018-05-07T01:30:58.315Z,19.45
2018-05-07T01:31:58.168Z,19.47
2018-05-07T01:32:58.173Z,19.46
2018-05-07T01:33:58.276Z,19.44
2018-05-07T01:34:58.316Z,19.46
2018-05-07T01:35:58.145Z,19.45
2018-05-07T01:36:58.172Z,19.44
2018-05-07T01:37:58.300Z,19.47
2018-05-07T01:39:08.202Z,19.45
2018-05-07T01:39:58.192Z,19.44
2018-05-07T01:40:58.336Z,19.47
2018-05-07T01:41:58.266Z,19.45
2018-05-07T01:42:58.284Z,19.44
2018-05-07T01:43:58.350Z,19.45
2018-05-07T01:44:58.402Z,19.44
2018-05-07T01:45:58.335Z,19.44
2018-05-07T01:46:58.351Z,19.46
2018-05-07T01:47:58.587Z,19.44
2018-05-07T01:48:58.326Z,19.43
2018-05-07T01:49:58.415Z,19.46
2018-05-07T01:50:58.265Z,19.43
2018-05-07T01:51:58.066Z,19.43
2018-05-07T01:52:58.312Z,19.46
2018-05-07T01:53:58.384Z,19.43
2018-05-07T01:54:58.286Z,19.43
2018-05-07T01:55:58.193Z,19.46
2018-05-07T01:56:58.209Z,19.44
2018-05-07T01:57:58.226Z,19.43
2018-05-07T01:58:58.354Z,19.45
2018-05-07T01:59:58.261Z,19.43
2018-05-07T02:00:58.296Z,19.43
2018-05-07T02:01:58.290Z,19.45
2018-05-07T02:02:58.194Z,19.44
2018-05-07T02:03:58.286Z,19.42
2018-05-07T02:04:58.152Z,19.45
2018-05-07T02:05:58.136Z,19.43
2018-05-07T02:06:58.299Z,19.42
2018-05-07T02:07:58.198Z,19.43
2018-05-07T02:08:58.381Z,19.42
2018-05-07T02:09:58.160Z,19.42
2018-05-07T02:10:58.240Z,19.45
2018-05-07T02:11:58.412Z,19.43
2018-05-07T02:12:58.195Z,19.42
2018-05-07T02:13:58.292Z,19.44
2018-05-07T02:14:58.187Z,19.43
2018-05-07T02:15:58.287Z,19.42
2018-05-07T02:16:58.120Z,19.44
2018-05-07T02:17:58.312Z,19.42
2018-05-07T02:18:58.463Z,19.42
2018-05-07T02:19:58.254Z,19.43
2018-05-07T02:20:58.204Z,19.42
2018-05-07T02:21:58.346Z,19.41
2018-05-07T02:22:58.268Z,19.44
2018-05-07T02:23:58.235Z,19.42
2018-05-07T02:24:58.246Z,19.42
2018-05-07T02:25:58.327Z,19.44
2018-05-07T02:26:58.271Z,19.42
2018-05-07T02:27:58.152Z,19.42
2018-05-07T02:28:58.359Z,19.44
2018-05-07T02:29:58.118Z,19.42
2018-05-07T02:30:58.285Z,19.41
2018-05-07T02:31:58.288Z,19.43
2018-05-07T02:32:58.277Z,19.41
2018-05-07T02:33:58.175Z,19.4
2018-05-07T02:34:58.211Z,19.43
2018-05-07T02:35:58.259Z,19.41
2018-05-07T02:36:58.325Z,19.4
2018-05-07T02:37:58.210Z,19.43
2018-05-07T02:38:58.340Z,19.41
2018-05-07T02:39:58.241Z,19.4
2018-05-07T02:40:58.162Z,19.42
2018-05-07T02:41:58.219Z,19.42
2018-05-07T02:42:58.232Z,19.41
2018-05-07T02:43:58.177Z,19.43
2018-05-07T02:44:58.201Z,19.4
2018-05-07T02:45:58.191Z,19.4
2018-05-07T02:46:58.339Z,19.42
2018-05-07T02:47:58.435Z,19.41
2018-05-07T02:48:58.232Z,19.39
2018-05-07T02:49:58.231Z,19.42
2018-05-07T02:50:58.226Z,19.4
2018-05-07T02:51:58.370Z,19.39
2018-05-07T02:52:58.179Z,19.42
2018-05-07T02:53:58.089Z,19.4
2018-05-07T02:54:58.157Z,19.4
2018-05-07T02:55:58.101Z,19.42
2018-05-07T02:56:58.159Z,19.4
2018-05-07T02:57:58.281Z,19.39
2018-05-07T02:58:58.339Z,19.41
2018-05-07T02:59:58.251Z,19.41
2018-05-07T03:00:58.161Z,19.39
2018-05-07T03:01:58.215Z,19.42
2018-05-07T03:02:58.110Z,19.39
2018-05-07T03:03:58.101Z,19.39
2018-05-07T03:04:58.238Z,19.41
2018-05-07T03:05:58.126Z,19.39
2018-05-07T03:06:58.135Z,19.39
2018-05-07T03:07:58.248Z,19.42
2018-05-07T03:08:58.233Z,19.4
2018-05-07T03:09:58.157Z,19.38
2018-05-07T03:10:58.162Z,19.42
2018-05-07T03:11:58.194Z,19.4
2018-05-07T03:12:58.215Z,19.39
2018-05-07T03:13:58.136Z,19.41
2018-05-07T03:14:58.218Z,19.39
2018-05-07T03:15:58.144Z,19.39
2018-05-07T03:16:58.363Z,19.41
2018-05-07T03:17:58.249Z,19.39
2018-05-07T03:18:58.254Z,19.38
2018-05-07T03:19:58.278Z,19.41
2018-05-07T03:20:58.308Z,19.4
2018-05-07T03:21:58.212Z,19.38
2018-05-07T03:22:58.458Z,19.41
2018-05-07T03:23:58.267Z,19.39
2018-05-07T03:24:58.243Z,19.38
2018-05-07T03:25:58.118Z,19.4
2018-05-07T03:26:58.197Z,19.39
2018-05-07T03:27:58.127Z,19.38
2018-05-07T03:28:58.182Z,19.41
2018-05-07T03:29:58.112Z,19.39
2018-05-07T03:30:58.170Z,19.38
2018-05-07T03:31:58.357Z,19.41
2018-05-07T03:32:58.404Z,19.39
2018-05-07T03:33:58.179Z,19.38
2018-05-07T03:34:58.279Z,19.41
2018-05-07T03:35:58.156Z,19.38
2018-05-07T03:36:58.299Z,19.37
2018-05-07T03:37:58.235Z,19.4
2018-05-07T03:38:58.292Z,19.38
2018-05-07T03:40:58.174Z,19.4
2018-05-07T03:41:58.209Z,19.39
2018-05-07T03:42:58.285Z,19.38
2018-05-07T03:43:58.230Z,19.4
2018-05-07T03:44:58.234Z,19.39
2018-05-07T06:01:42.156Z,19.38
2018-05-07T06:02:42.496Z,19.41
2018-05-07T06:03:42.308Z,19.39
2018-05-07T06:04:42.322Z,19.39
2018-05-07T06:05:42.043Z,19.42
2018-05-07T06:06:42.158Z,19.4
2018-05-07T06:07:42.231Z,19.39
2018-05-07T06:08:42.147Z,19.41
2018-05-07T06:09:42.200Z,19.39
2018-05-07T06:10:42.138Z,19.39
2018-05-07T06:11:42.278Z,19.41
2018-05-07T06:12:42.014Z,19.39
2018-05-07T06:13:42.129Z,19.4
2018-05-07T06:14:42.233Z,19.41
2018-05-07T06:15:41.994Z,19.4
2018-05-07T06:16:42.396Z,19.38
2018-05-07T06:17:41.958Z,19.41
2018-05-07T06:18:42.106Z,19.39
2018-05-07T06:19:42.303Z,19.39
2018-05-07T06:20:42.142Z,19.41
2018-05-07T06:21:42.109Z,19.4
2018-05-07T06:22:42.082Z,19.39
2018-05-07T06:23:41.970Z,19.42
2018-05-07T06:24:42.083Z,19.4
2018-05-07T06:25:42.123Z,19.39
2018-05-07T06:26:42.125Z,19.41
2018-05-07T06:27:41.969Z,19.4
2018-05-07T06:28:42.237Z,19.4
2018-05-07T06:29:41.995Z,19.42
2018-05-07T06:30:42.046Z,19.4
2018-05-07T06:31:42.105Z,19.4
2018-05-07T06:32:42.079Z,19.42
2018-05-07T06:33:42.142Z,19.4
2018-05-07T06:34:41.998Z,19.39
2018-05-07T06:35:42.218Z,19.41
2018-05-07T06:36:42.136Z,19.4
2018-05-07T06:37:42.059Z,19.39
2018-05-07T06:38:42.282Z,19.41
2018-05-07T06:39:42.240Z,19.4
2018-05-07T06:40:42.126Z,19.39
2018-05-07T06:41:42.169Z,19.41
2018-05-07T06:42:42.200Z,19.4
2018-05-07T06:43:42.329Z,19.39
2018-05-07T06:44:42.011Z,19.41
2018-05-07T06:45:41.970Z,19.4
2018-05-07T06:46:42.125Z,19.4
2018-05-07T06:47:42.147Z,19.41
2018-05-07T06:48:42.172Z,19.41
2018-05-07T06:49:42.131Z,19.4
2018-05-07T06:50:42.058Z,19.42
2018-05-07T06:51:42.214Z,19.4
2018-05-07T06:52:42.327Z,19.39
2018-05-07T06:53:43.369Z,19.42
2018-05-07T06:54:42.211Z,19.4
2018-05-07T06:55:42.146Z,19.39
2018-05-07T06:56:42.061Z,19.43
2018-05-07T06:57:42.127Z,19.4
2018-05-07T06:58:42.187Z,19.4
2018-05-07T06:59:42.142Z,19.41
2018-05-07T07:00:42.058Z,19.39
2018-05-07T07:01:42.162Z,19.39
2018-05-07T07:02:42.238Z,19.42
2018-05-07T07:03:42.216Z,19.4
2018-05-07T07:04:42.142Z,19.4
2018-05-07T07:05:42.204Z,19.42
2018-05-07T07:06:42.174Z,19.4
2018-05-07T07:07:41.951Z,19.39
2018-05-07T07:08:42.124Z,19.41
2018-05-07T07:09:42.146Z,19.4
2018-05-07T07:10:42.123Z,19.39
2018-05-07T07:11:42.059Z,19.41
2018-05-07T07:12:42.105Z,19.4
2018-05-07T07:13:42.124Z,19.39
2018-05-07T07:14:42.103Z,19.42
2018-05-07T07:15:42.073Z,19.4
2018-05-07T07:16:42.168Z,19.4
2018-05-07T07:17:42.180Z,19.42
2018-05-07T07:18:41.938Z,19.4
2018-05-07T07:19:41.979Z,19.39
2018-05-07T07:20:42.044Z,19.43
2018-05-07T07:21:42.033Z,19.4
2018-05-07T07:22:42.030Z,19.39
2018-05-07T07:23:42.134Z,19.42
2018-05-07T07:24:42.195Z,19.4
2018-05-07T07:25:42.006Z,19.39
2018-05-07T07:26:42.229Z,19.41
2018-05-07T07:27:42.104Z,19.4
2018-05-07T07:28:42.012Z,19.39
2018-05-07T07:29:51.986Z,19.41
2018-05-07T07:30:41.980Z,19.4
2018-05-07T07:31:42.185Z,19.39
2018-05-07T07:32:42.134Z,19.41
2018-05-07T07:33:42.242Z,19.39
2018-05-07T07:34:42.017Z,19.39
2018-05-07T07:35:41.964Z,19.41
2018-05-07T07:36:42.107Z,19.4
2018-05-07T07:37:42.139Z,19.39
2018-05-07T07:38:42.541Z,19.41
2018-05-07T07:39:42.367Z,19.4
2018-05-07T07:40:42.188Z,19.39
2018-05-07T07:41:42.208Z,19.41
2018-05-07T07:42:42.122Z,19.39
2018-05-07T07:43:42.121Z,19.38
2018-05-07T07:44:42.137Z,19.42
2018-05-07T07:45:42.040Z,19.4
2018-05-07T07:46:41.925Z,19.38
2018-05-07T07:47:42.338Z,19.41
2018-05-07T07:48:42.120Z,19.4
2018-05-07T07:49:42.229Z,19.39
2018-05-07T07:50:42.219Z,19.42
2018-05-07T07:51:42.314Z,19.39
2018-05-07T07:52:42.083Z,19.39
2018-05-07T07:53:42.186Z,19.41
2018-05-07T07:54:42.076Z,19.4
2018-05-07T07:55:41.984Z,19.38
2018-05-07T07:56:42.130Z,19.41
2018-05-07T07:57:41.926Z,19.4
2018-05-07T07:58:42.085Z,19.39
2018-05-07T07:59:42.084Z,19.42
2018-05-07T08:00:42.146Z,19.4
2018-05-07T08:01:42.373Z,19.39
2018-05-07T08:02:42.068Z,19.42
2018-05-07T08:03:42.101Z,19.4
2018-05-07T08:04:42.191Z,19.39
2018-05-07T08:05:42.030Z,19.41
2018-05-07T08:06:42.128Z,19.4
2018-05-07T08:07:42.252Z,19.39
2018-05-07T08:08:41.980Z,19.41
2018-05-07T08:09:42.047Z,19.39
2018-05-07T08:10:42.089Z,19.38
2018-05-07T08:11:42.159Z,19.41
2018-05-07T08:12:42.133Z,19.39
2018-05-07T08:13:42.170Z,19.38
2018-05-07T08:14:42.138Z,19.41
2018-05-07T08:15:42.067Z,19.39
2018-05-07T08:16:41.968Z,19.39
2018-05-07T08:17:41.973Z,19.41
2018-05-07T08:18:42.109Z,19.39
2018-05-07T08:19:41.992Z,19.39
2018-05-07T08:20:42.008Z,19.4
2018-05-07T08:21:42.015Z,19.39
2018-05-07T08:22:42.115Z,19.38
2018-05-07T08:23:42.021Z,19.42
2018-05-07T08:24:42.099Z,19.39
2018-05-07T08:25:42.166Z,19.39
2018-05-07T08:26:42.063Z,19.41
2018-05-07T08:27:42.196Z,19.39
2018-05-07T08:28:42.281Z,19.39
2018-05-07T08:29:42.037Z,19.41
2018-05-07T08:30:41.935Z,19.39
2018-05-07T08:31:41.996Z,19.37
2018-05-07T08:32:42.083Z,19.4
2018-05-07T08:33:42.131Z,19.39
2018-05-07T08:34:42.071Z,19.38
2018-05-07T08:35:42.192Z,19.4
2018-05-07T08:36:42.222Z,19.39
2018-05-07T08:37:42.039Z,19.38
2018-05-07T08:38:42.002Z,19.41
2018-05-07T08:39:42.174Z,19.39
2018-05-07T08:40:42.106Z,19.38
2018-05-07T08:41:41.999Z,19.41
2018-05-07T08:42:42.020Z,19.39
2018-05-07T08:43:42.168Z,19.38
2018-05-07T08:44:42.077Z,19.41
2018-05-07T08:45:42.054Z,19.39
2018-05-07T08:46:42.064Z,19.39
2018-05-07T08:47:42.090Z,19.42
2018-05-07T08:48:42.074Z,19.39
2018-05-07T08:49:41.946Z,19.37
2018-05-07T08:50:41.925Z,19.41
2018-05-07T08:51:42.232Z,19.4
2018-05-07T08:52:41.990Z,19.39
2018-05-07T08:53:42.163Z,19.4
2018-05-07T08:54:42.029Z,19.39
2018-05-07T08:55:42.142Z,19.38
2018-05-07T08:56:41.967Z,19.41
2018-05-07T08:57:42.268Z,19.38
2018-05-07T08:58:42.108Z,19.38
2018-05-07T08:59:42.095Z,19.41
2018-05-07T09:00:42.040Z,19.39
2018-05-07T09:01:41.940Z,19.38
2018-05-07T09:02:42.148Z,19.41
2018-05-07T09:03:41.920Z,19.38
2018-05-07T09:04:41.913Z,19.38
2018-05-07T09:05:41.943Z,19.4
2018-05-07T09:06:41.928Z,19.38
2018-05-07T09:07:42.155Z,19.38
2018-05-07T09:08:42.159Z,19.39
2018-05-07T09:09:42.033Z,19.38
2018-05-07T09:10:42.166Z,19.38
2018-05-07T09:11:42.143Z,19.4
2018-05-07T09:12:42.207Z,19.38
2018-05-07T09:13:42.257Z,19.38
2018-05-07T09:14:41.955Z,19.4
2018-05-07T09:15:42.125Z,19.38
2018-05-07T09:16:42.137Z,19.38
2018-05-07T09:17:41.995Z,19.4
2018-05-07T09:18:42.182Z,19.37
2018-05-07T09:19:42.106Z,19.37
2018-05-07T09:20:42.166Z,19.41
2018-05-07T09:21:42.014Z,19.38
2018-05-07T09:22:42.202Z,19.37
2018-05-07T09:23:42.167Z,19.39
2018-05-07T09:24:42.167Z,19.37
2018-05-07T09:25:51.978Z,19.37
2018-05-07T09:26:42.109Z,19.39
2018-05-07T09:27:41.955Z,19.37
2018-05-07T09:28:42.210Z,19.37
2018-05-07T09:29:41.958Z,19.4
2018-05-07T09:30:41.892Z,19.38
2018-05-07T09:31:41.954Z,19.37
2018-05-07T09:32:41.956Z,19.39
2018-05-07T09:33:42.000Z,19.38
2018-05-07T09:34:42.055Z,19.36
2018-05-07T09:35:42.090Z,19.39
2018-05-07T09:36:42.031Z,19.38
2018-05-07T09:37:41.999Z,19.37
2018-05-07T09:38:42.172Z,19.4
2018-05-07T09:39:42.013Z,19.38
2018-05-07T09:40:42.097Z,19.37
2018-05-07T09:41:41.947Z,19.39
2018-05-07T09:42:41.919Z,19.38
2018-05-07T09:43:42.099Z,19.37
2018-05-07T09:44:42.130Z,19.39
2018-05-07T09:45:42.092Z,19.37
2018-05-07T09:46:41.958Z,19.36
2018-05-07T09:47:42.139Z,19.4
2018-05-07T09:48:42.114Z,19.38
2018-05-07T09:49:42.153Z,19.37
2018-05-07T09:50:42.014Z,19.4
2018-05-07T09:51:41.970Z,19.38
2018-05-07T09:52:42.176Z,19.38
2018-05-07T09:53:42.044Z,19.4
2018-05-07T09:54:41.961Z,19.38
2018-05-07T09:55:42.174Z,19.37
2018-05-07T09:56:42.018Z,19.4
2018-05-07T09:57:42.033Z,19.37
2018-05-07T09:58:41.975Z,19.37
2018-05-07T09:59:42.090Z,19.4
2018-05-07T10:00:41.951Z,19.38
2018-05-07T10:01:42.039Z,19.37
2018-05-07T10:02:42.052Z,19.39
2018-05-07T10:03:42.033Z,19.38
2018-05-07T10:04:41.910Z,19.37
2018-05-07T10:05:42.277Z,19.41
2018-05-07T10:06:42.029Z,19.38
2018-05-07T10:07:41.922Z,19.37
2018-05-07T10:08:42.031Z,19.4
2018-05-07T10:09:42.061Z,19.38
2018-05-07T10:10:42.172Z,19.37
2018-05-07T10:11:42.029Z,19.4
2018-05-07T10:12:41.921Z,19.38
2018-05-07T10:13:42.006Z,19.37
2018-05-07T10:14:41.977Z,19.39
2018-05-07T10:15:41.866Z,19.37
2018-05-07T10:16:42.100Z,19.37
2018-05-07T10:17:42.171Z,19.4
2018-05-07T10:18:41.980Z,19.38
2018-05-07T10:19:42.185Z,19.36
2018-05-07T10:20:42.059Z,19.39
2018-05-07T10:21:41.985Z,19.37
2018-05-07T10:22:41.981Z,19.36
2018-05-07T10:23:42.097Z,19.39
2018-05-07T10:24:42.140Z,19.38
2018-05-07T10:25:41.950Z,19.36
2018-05-07T10:26:41.878Z,19.39
2018-05-07T10:27:41.949Z,19.37
2018-05-07T10:28:42.003Z,19.36
2018-05-07T10:29:42.183Z,19.39
2018-05-07T10:30:42.093Z,19.37
2018-05-07T10:31:41.962Z,19.36
2018-05-07T10:32:42.107Z,19.39
2018-05-07T10:33:42.030Z,19.37
2018-05-07T10:34:41.962Z,19.36
2018-05-07T10:35:42.117Z,19.38
2018-05-07T10:36:42.114Z,19.37
2018-05-07T10:37:41.919Z,19.36
2018-05-07T10:38:41.979Z,19.39
2018-05-07T10:39:42.017Z,19.37
2018-05-07T10:40:42.128Z,19.36
2018-05-07T10:41:41.947Z,19.39
2018-05-07T10:42:41.984Z,19.37
2018-05-07T10:43:42.082Z,19.37
2018-05-07T10:44:42.100Z,19.38
2018-05-07T10:45:41.998Z,19.37
2018-05-07T10:46:42.037Z,19.36
2018-05-07T10:47:41.997Z,19.39
2018-05-07T10:48:41.998Z,19.37
2018-05-07T10:49:41.914Z,19.37
2018-05-07T10:50:42.039Z,19.39
2018-05-07T10:51:41.967Z,19.35
2018-05-07T10:52:41.976Z,19.35
2018-05-07T10:53:41.955Z,19.39
2018-05-07T10:54:41.984Z,19.36
2018-05-07T10:55:41.871Z,19.36
2018-05-07T10:56:42.167Z,19.39
2018-05-07T10:57:42.348Z,19.37
2018-05-07T10:58:41.909Z,19.36
2018-05-07T10:59:41.915Z,19.39
2018-05-07T11:00:41.982Z,19.37
2018-05-07T11:01:42.114Z,19.37
2018-05-07T11:02:42.019Z,19.39
2018-05-07T11:03:41.849Z,19.37
2018-05-07T11:04:42.012Z,19.35
2018-05-07T11:05:41.999Z,19.39
2018-05-07T11:06:41.861Z,19.37
2018-05-07T11:07:42.193Z,19.36
2018-05-07T11:08:42.136Z,19.39
2018-05-07T11:09:42.058Z,19.37
2018-05-07T11:11:12.926Z,19.35
2018-05-07T11:11:42.076Z,19.39
2018-05-07T11:12:41.988Z,19.36
2018-05-07T11:13:41.861Z,19.35
2018-05-07T11:14:42.029Z,19.39
2018-05-07T11:15:41.896Z,19.36
2018-05-07T11:16:41.947Z,19.36
2018-05-07T11:17:42.050Z,19.39
2018-05-07T11:18:42.076Z,19.37
2018-05-07T11:19:41.967Z,19.35
2018-05-07T11:20:41.948Z,19.39
2018-05-07T11:21:41.984Z,19.36
2018-05-07T11:22:41.981Z,19.35
2018-05-07T11:23:42.134Z,19.32
2018-05-07T11:24:42.074Z,19.35
2018-05-07T11:25:42.128Z,19.37
2018-05-07T11:26:41.960Z,19.41
2018-05-07T11:27:42.280Z,19.39
2018-05-07T11:28:42.127Z,19.38
2018-05-07T11:29:42.020Z,19.4
2018-05-07T11:30:42.033Z,19.39
2018-05-07T11:31:42.133Z,19.37
2018-05-07T11:32:42.080Z,19.4
2018-05-07T11:33:41.974Z,19.39
2018-05-07T11:34:42.133Z,19.37
2018-05-07T11:35:42.040Z,19.4
2018-05-07T11:36:41.960Z,19.39
2018-05-07T11:37:42.176Z,19.39
2018-05-07T11:38:41.949Z,19.41
2018-05-07T11:39:42.041Z,19.39
2018-05-07T11:40:41.967Z,19.38
2018-05-07T11:41:41.948Z,19.41
2018-05-07T11:42:42.088Z,19.39
2018-05-07T11:43:42.011Z,19.38
2018-05-07T11:44:41.924Z,19.31
2018-05-07T11:45:41.955Z,19.34
2018-05-07T11:46:42.000Z,19.37
2018-05-07T11:47:42.088Z,19.41
2018-05-07T11:48:41.923Z,19.41
2018-05-07T11:49:41.849Z,19.42
2018-05-07T11:50:42.022Z,19.48
2018-05-07T11:51:41.951Z,19.48
2018-05-07T11:52:42.135Z,19.49
2018-05-07T11:53:41.973Z,19.54
2018-05-07T11:54:42.060Z,19.54
2018-05-07T11:55:41.933Z,19.54
2018-05-07T11:56:41.949Z,19.57
2018-05-07T11:57:42.080Z,19.56
2018-05-07T11:58:42.050Z,19.55
2018-05-07T11:59:41.984Z,19.61
2018-05-07T12:00:42.006Z,19.6
2018-05-07T12:01:42.020Z,19.57
2018-05-07T12:02:42.040Z,19.61
2018-05-07T12:03:42.008Z,19.6
2018-05-07T12:04:41.945Z,19.6
2018-05-07T12:05:42.120Z,19.63
2018-05-07T12:06:41.939Z,19.61
2018-05-07T12:07:41.914Z,19.6
2018-05-07T12:08:42.045Z,19.65
2018-05-07T12:09:41.943Z,19.63
2018-05-07T12:10:41.971Z,19.63
2018-05-07T12:11:42.088Z,19.66
2018-05-07T12:12:41.923Z,19.64
2018-05-07T12:13:41.993Z,19.67
2018-05-07T12:14:41.910Z,19.66
2018-05-07T12:15:42.210Z,19.63
2018-05-07T12:16:42.024Z,19.61
2018-05-07T12:17:41.945Z,19.65
2018-05-07T12:18:41.959Z,19.61
2018-05-07T12:19:42.009Z,19.58
2018-05-07T12:20:41.982Z,19.61
2018-05-07T12:21:41.972Z,19.58
2018-05-07T12:22:42.032Z,19.56
2018-05-07T12:23:41.993Z,19.59
2018-05-07T12:24:42.151Z,19.57
2018-05-07T12:25:41.897Z,19.55
2018-05-07T12:26:42.001Z,19.58
2018-05-07T12:27:42.064Z,19.56
2018-05-07T12:28:41.956Z,19.54
2018-05-07T12:29:42.016Z,19.56
2018-05-07T12:30:42.079Z,19.54
2018-05-07T12:31:42.124Z,19.53
2018-05-07T12:32:41.832Z,19.55
2018-05-07T12:33:41.950Z,19.53
2018-05-07T12:34:41.934Z,19.52
2018-05-07T12:35:42.123Z,19.55
2018-05-07T12:36:41.882Z,19.53
2018-05-07T12:37:41.966Z,19.51
2018-05-07T12:38:41.965Z,19.53
2018-05-07T12:39:41.938Z,19.51
2018-05-07T12:40:41.988Z,19.5
2018-05-07T12:41:42.101Z,19.54
2018-05-07T12:42:42.061Z,19.52
2018-05-07T12:43:42.016Z,19.5
2018-05-07T12:44:41.956Z,19.53
2018-05-07T12:45:41.970Z,19.51
2018-05-07T12:46:41.988Z,19.5
2018-05-07T12:47:41.896Z,19.52
2018-05-07T12:48:42.061Z,19.5
2018-05-07T12:49:41.995Z,19.49
2018-05-07T12:50:41.932Z,19.52
2018-05-07T12:51:42.023Z,19.5
2018-05-07T12:52:42.065Z,19.48
2018-05-07T12:53:42.082Z,19.51
2018-05-07T12:54:41.995Z,19.49
2018-05-07T12:55:41.877Z,19.49
2018-05-07T12:56:41.940Z,19.52
2018-05-07T12:57:41.964Z,19.49
2018-05-07T12:58:41.876Z,19.47
2018-05-07T12:59:41.858Z,19.5
2018-05-07T13:00:42.014Z,19.49
2018-05-07T13:01:41.965Z,19.48
2018-05-07T13:02:41.946Z,19.5
2018-05-07T13:03:41.953Z,19.49
2018-05-07T13:04:42.087Z,19.48
2018-05-07T13:05:42.046Z,19.5
2018-05-07T13:06:41.862Z,19.48
2018-05-07T13:07:42.035Z,19.47
2018-05-07T13:08:42.051Z,19.51
2018-05-07T13:09:41.824Z,19.49
2018-05-07T13:10:42.087Z,19.47
2018-05-07T13:11:41.991Z,19.5
2018-05-07T13:12:42.071Z,19.48
2018-05-07T13:13:41.973Z,19.47
2018-05-07T13:14:42.005Z,19.5
2018-05-07T13:15:42.143Z,19.47
2018-05-07T13:16:41.931Z,19.47
2018-05-07T13:17:42.027Z,19.49
2018-05-07T13:18:42.161Z,19.48
2018-05-07T13:19:41.858Z,19.47
2018-05-07T13:20:42.111Z,19.48
2018-05-07T13:21:41.972Z,19.47
2018-05-07T13:22:41.981Z,19.47
2018-05-07T13:23:41.843Z,19.49
2018-05-07T13:24:42.048Z,19.47
2018-05-07T13:25:41.988Z,19.46
2018-05-07T13:26:41.863Z,19.48
2018-05-07T13:27:41.860Z,19.47
2018-05-07T13:28:41.989Z,19.46
2018-05-07T13:29:41.881Z,19.49
2018-05-07T13:30:42.030Z,19.5
2018-05-07T13:31:42.046Z,19.49
2018-05-07T13:32:41.888Z,19.51
2018-05-07T13:33:41.946Z,19.5
2018-05-07T13:34:42.010Z,19.52
2018-05-07T13:35:41.941Z,19.53
2018-05-07T13:36:42.243Z,19.51
2018-05-07T13:37:41.964Z,19.48
2018-05-07T13:38:41.933Z,19.5
2018-05-07T13:39:42.110Z,19.48
2018-05-07T13:40:42.418Z,19.47
2018-05-07T13:41:41.952Z,19.49
2018-05-07T13:42:41.963Z,19.48
2018-05-07T13:43:42.217Z,19.46
2018-05-07T13:44:41.934Z,19.49
2018-05-07T13:45:42.200Z,19.47
2018-05-07T13:46:41.942Z,19.46
2018-05-07T13:47:42.107Z,19.48
2018-05-07T13:48:41.926Z,19.47
2018-05-07T13:49:41.838Z,19.46
2018-05-07T13:50:42.123Z,19.48
2018-05-07T13:51:41.940Z,19.46
2018-05-07T13:52:42.147Z,19.46
2018-05-07T13:53:41.858Z,19.48
2018-05-07T13:54:42.118Z,19.47
2018-05-07T13:55:42.109Z,19.46
2018-05-07T13:56:42.129Z,19.49
2018-05-07T13:57:42.050Z,19.46
2018-05-07T13:58:42.070Z,19.46
2018-05-07T13:59:41.994Z,19.48
2018-05-07T14:00:42.023Z,19.46
2018-05-07T14:01:42.098Z,19.45
2018-05-07T14:02:42.061Z,19.48
2018-05-07T14:03:41.985Z,19.45
2018-05-07T14:04:41.966Z,19.45
2018-05-07T14:05:42.018Z,19.48
2018-05-07T14:06:42.131Z,19.45
2018-05-07T14:07:42.067Z,19.45
2018-05-07T14:08:41.940Z,19.48
2018-05-07T14:09:42.010Z,19.46
2018-05-07T14:10:41.993Z,19.45
2018-05-07T14:11:42.092Z,19.48
2018-05-07T14:12:42.092Z,19.46
2018-05-07T14:13:41.902Z,19.45
2018-05-07T14:14:42.163Z,19.47
2018-05-07T14:15:52.003Z,19.44
2018-05-07T14:16:42.128Z,19.44
2018-05-07T14:17:42.142Z,19.48
2018-05-07T14:18:42.000Z,19.45
2018-05-07T14:19:42.018Z,19.44
2018-05-07T14:20:41.940Z,19.47
2018-05-07T14:21:41.950Z,19.45
2018-05-07T14:22:42.074Z,19.44
2018-05-07T14:23:41.732Z,19.47
2018-05-07T14:24:42.053Z,19.45
2018-05-07T14:25:42.281Z,19.44
2018-05-07T14:26:41.928Z,19.46
2018-05-07T14:27:42.179Z,19.45
2018-05-07T14:28:41.979Z,19.44
2018-05-07T14:29:42.193Z,19.47
2018-05-07T14:30:41.896Z,19.45
2018-05-07T14:31:42.077Z,19.44
2018-05-07T14:32:41.913Z,19.46
2018-05-07T14:33:41.997Z,19.44
2018-05-07T14:34:42.263Z,19.44
2018-05-07T14:35:41.992Z,19.47
2018-05-07T14:36:41.872Z,19.45
2018-05-07T14:37:42.041Z,19.44
2018-05-07T14:38:42.056Z,19.47
2018-05-07T14:39:41.855Z,19.45
2018-05-07T14:40:41.898Z,19.44
2018-05-07T14:41:41.927Z,19.46
2018-05-07T14:42:41.990Z,19.45
2018-05-07T14:43:41.870Z,19.44
2018-05-07T14:44:41.883Z,19.47
2018-05-07T14:45:41.888Z,19.44
2018-05-07T14:46:42.058Z,19.44
2018-05-07T14:47:42.049Z,19.47
2018-05-07T14:48:42.000Z,19.44
2018-05-07T14:49:41.864Z,19.44
2018-05-07T14:50:42.137Z,19.46
2018-05-07T14:51:42.067Z,19.45
2018-05-07T14:52:42.103Z,19.44
2018-05-07T14:53:41.889Z,19.47
2018-05-07T14:54:41.940Z,19.45
2018-05-07T14:55:42.000Z,19.44
2018-05-07T14:56:42.041Z,19.47
2018-05-07T14:57:41.973Z,19.44
2018-05-07T14:58:42.133Z,19.44
2018-05-07T14:59:41.890Z,19.46
2018-05-07T15:00:41.801Z,19.45
2018-05-07T15:01:42.030Z,19.44
2018-05-07T15:02:42.104Z,19.46
2018-05-07T15:03:41.862Z,19.45
2018-05-07T15:04:41.958Z,19.44
2018-05-07T15:05:41.794Z,19.46
2018-05-07T15:06:41.929Z,19.44
2018-05-07T15:07:41.942Z,19.43
2018-05-07T15:08:41.895Z,19.46
2018-05-07T15:09:42.023Z,19.45
2018-05-07T15:10:42.017Z,19.44
2018-05-07T15:11:41.911Z,19.47
2018-05-07T15:12:41.867Z,19.44
2018-05-07T15:13:41.875Z,19.43